메인 페이지
METAR-TAF:

METAR-TAF

공항 :

Westfield / 스프링필드, 매사추세츠, 미국

위도: 42-09-35N, 경도: 072-42-46W, 고도: 82m

현재 날씨관측

예보는 1 시간 0분 전, 02:53시(UTC)에 발표되었습니다.
북서7kt
온도 1°C
습도 40%
기압 1023 hPa
시정: 16.1km
맑음

METAR: KBAF 260253Z 31007KT 10SM CLR 01/M11 A3022 RMK AO2 SLP238 T00061106 51021

시각: 22:53 (03:53 UTC)

예보

예보는 4 시간 31분 전, 23:22시(UTC)에 발표되었습니다.
예보 대상 시간: 26일 00시부터 26일 24시까지 (UTC)
북서9kt
시정: 10km
맑음
26일 0500시부터 (UTC)
서북서4kt
시정: 10km
맑음
26일 1300시부터 (UTC)
3kt
시정: 10km
맑음
26일 2100시부터 (UTC)
남서4kt
시정: 10km
고도 25000ft 상공 구름 조금

TAF: KBAF 252322Z 2600/2624 32009KT P6SM SKC FM260500 30004KT P6SM SKC FM261300 26003KT P6SM SKC FM262100 23004KT P6SM FEW250

4,000개 이상의 공항 관측 자료 및 예보 (METAR 및 TAF 보고).

지도상에서 검색 가능한 기상관측소가 노란 점과 빨간 점으로 표시되어 있습니다.

기상관측소 명을 보려면 표시 위로 마우스를 이동하세요.

날씨 관측과 예보를 보려면 클릭하세요.

지도 변경 : 확대하려면 엑스 표시가 있는 녹색 버튼, 축소하려면 빼기 표시가 있는 녹색 버튼, 다음 페이지의 지도를 보려면 녹색 화살표를 클릭하세요.


METAR-TAF: